createdAt,value
2022-10-01T00:01:15.841Z,11.39
2022-10-01T00:03:43.394Z,11.38
2022-10-01T00:06:17.739Z,11.34
2022-10-01T00:08:48.850Z,11.32
2022-10-01T00:11:19.481Z,11.33
2022-10-01T00:13:46.342Z,11.33
2022-10-01T00:16:16.412Z,11.31
2022-10-01T00:18:45.870Z,11.28
2022-10-01T00:21:16.255Z,11.30
2022-10-01T00:23:42.792Z,11.32
2022-10-01T00:26:13.746Z,11.30
2022-10-01T00:28:41.325Z,11.28
2022-10-01T00:31:09.212Z,11.28
2022-10-01T00:33:36.720Z,11.28
2022-10-01T00:36:06.180Z,11.27
2022-10-01T00:38:33.908Z,11.22
2022-10-01T00:41:01.047Z,11.20
2022-10-01T00:43:31.716Z,11.22
2022-10-01T00:46:04.174Z,11.22
2022-10-01T00:48:37.673Z,11.20
2022-10-01T00:51:06.551Z,11.17
2022-10-01T00:53:33.374Z,11.17
2022-10-01T00:56:00.170Z,11.19
2022-10-01T00:58:27.102Z,11.20
2022-10-01T01:00:56.076Z,11.14
2022-10-01T01:03:23.247Z,11.11
2022-10-01T01:05:50.328Z,11.10
2022-10-01T01:08:17.934Z,11.14
2022-10-01T01:11:24.417Z,11.11
2022-10-01T01:14:08.337Z,11.11
2022-10-01T01:16:49.311Z,11.13
2022-10-01T01:19:30.514Z,11.14
2022-10-01T01:22:03.004Z,11.14
2022-10-01T01:24:39.751Z,11.15
2022-10-01T01:27:34.773Z,11.14
2022-10-01T01:30:08.536Z,11.10
2022-10-01T01:32:55.227Z,11.10
2022-10-01T01:35:26.648Z,11.11
2022-10-01T01:37:59.077Z,11.13
2022-10-01T01:40:27.240Z,11.13
2022-10-01T01:42:56.052Z,11.15
2022-10-01T01:45:28.630Z,11.16
2022-10-01T01:47:58.580Z,11.16
2022-10-01T01:50:28.956Z,11.16
2022-10-01T01:52:56.573Z,11.13
2022-10-01T01:55:24.601Z,11.13
2022-10-01T01:57:51.646Z,11.10
2022-10-01T02:00:18.219Z,11.09
2022-10-01T02:02:50.248Z,11.12
2022-10-01T02:05:21.474Z,11.12
2022-10-01T02:08:00.520Z,11.11
2022-10-01T02:10:38.087Z,11.11
2022-10-01T02:13:24.237Z,11.12
2022-10-01T02:16:06.858Z,11.12
2022-10-01T02:18:59.072Z,11.11
2022-10-01T02:21:39.827Z,11.11
2022-10-01T02:24:17.074Z,11.12
2022-10-01T02:26:48.888Z,11.10
2022-10-01T02:29:19.304Z,11.09
2022-10-01T02:31:47.540Z,11.12
2022-10-01T02:34:20.287Z,11.13
2022-10-01T02:36:48.847Z,11.12
2022-10-01T02:39:17.416Z,11.13
2022-10-01T02:41:48.328Z,11.14
2022-10-01T02:44:23.076Z,11.15
2022-10-01T02:47:07.914Z,11.16
2022-10-01T02:49:36.932Z,11.18
2022-10-01T02:52:24.152Z,11.19
2022-10-01T02:55:12.182Z,11.18
2022-10-01T02:57:39.215Z,11.21
2022-10-01T03:00:10.385Z,11.20
2022-10-01T03:02:36.882Z,11.19
2022-10-01T03:05:04.429Z,11.21
2022-10-01T03:07:34.609Z,11.23
2022-10-01T03:10:02.831Z,11.24
2022-10-01T03:12:29.523Z,11.23
2022-10-01T03:14:56.198Z,11.24
2022-10-01T03:17:22.904Z,11.24
2022-10-01T03:19:49.448Z,11.27
2022-10-01T03:22:22.793Z,11.30
2022-10-01T03:24:50.547Z,11.30
2022-10-01T03:27:17.652Z,11.33
2022-10-01T03:29:45.031Z,11.34
2022-10-01T03:32:12.249Z,11.34
2022-10-01T03:34:39.040Z,11.34
2022-10-01T03:37:05.777Z,11.38
2022-10-01T03:39:32.512Z,11.38
2022-10-01T03:41:59.183Z,11.41
2022-10-01T03:44:25.942Z,11.41
2022-10-01T03:46:52.406Z,11.42
2022-10-01T03:49:18.889Z,11.45
2022-10-01T03:51:45.553Z,11.46
2022-10-01T03:54:12.268Z,11.47
2022-10-01T03:56:40.864Z,11.49
2022-10-01T03:59:07.412Z,11.48
2022-10-01T04:01:34.222Z,11.50
2022-10-01T04:04:01.372Z,11.52
2022-10-01T04:06:27.978Z,11.54
2022-10-01T04:08:54.422Z,11.55
2022-10-01T04:11:21.672Z,11.57
2022-10-01T04:13:48.158Z,11.59
2022-10-01T04:16:16.229Z,11.59
2022-10-01T04:18:43.337Z,11.63
2022-10-01T04:21:09.836Z,11.63
2022-10-01T04:23:36.473Z,11.65
2022-10-01T04:26:04.577Z,11.65
2022-10-01T04:28:31.670Z,11.67
2022-10-01T04:31:17.126Z,11.68
2022-10-01T04:33:43.768Z,11.69
2022-10-01T04:36:10.284Z,11.70
2022-10-01T04:38:37.004Z,11.72
2022-10-01T04:41:04.037Z,11.73
2022-10-01T04:43:30.631Z,11.75
2022-10-01T04:45:57.131Z,11.75
2022-10-01T04:48:24.176Z,11.78
2022-10-01T04:50:50.710Z,11.78
2022-10-01T04:53:17.163Z,11.79
2022-10-01T04:55:43.757Z,11.79
2022-10-01T04:58:10.653Z,11.81
2022-10-01T05:00:37.229Z,11.83
2022-10-01T05:03:03.823Z,11.84
2022-10-01T05:05:33.136Z,11.86
2022-10-01T05:07:59.673Z,11.88
2022-10-01T05:10:26.342Z,11.89
2022-10-01T05:12:53.001Z,11.91
2022-10-01T05:15:19.879Z,11.94
2022-10-01T05:17:47.079Z,11.94
2022-10-01T05:20:19.335Z,11.97
2022-10-01T05:22:47.312Z,11.97
2022-10-01T05:25:14.011Z,12.00
2022-10-01T05:27:41.212Z,11.98
2022-10-01T05:30:10.541Z,11.98
2022-10-01T05:32:37.236Z,12.00
2022-10-01T05:35:05.459Z,12.01
2022-10-01T05:37:33.452Z,12.02
2022-10-01T05:40:00.105Z,12.02
2022-10-01T05:42:26.679Z,12.02
2022-10-01T05:44:53.192Z,12.03
2022-10-01T05:47:20.791Z,12.03
2022-10-01T05:49:47.270Z,12.01
2022-10-01T05:52:15.693Z,12.01
2022-10-01T05:54:42.162Z,11.98
2022-10-01T05:57:09.420Z,11.98
2022-10-01T05:59:36.404Z,11.98
2022-10-01T06:02:04.456Z,11.98
2022-10-01T06:04:31.383Z,11.95
2022-10-01T06:06:58.086Z,11.93
2022-10-01T06:09:24.732Z,11.92
2022-10-01T06:11:51.345Z,11.91
2022-10-01T06:14:18.120Z,11.91
2022-10-01T06:16:44.754Z,11.90
2022-10-01T06:19:11.273Z,11.89
2022-10-01T06:21:38.045Z,11.90
2022-10-01T06:24:06.953Z,11.89
2022-10-01T06:26:33.392Z,11.89
2022-10-01T06:28:59.895Z,11.89
2022-10-01T06:31:26.397Z,11.89
2022-10-01T06:33:53.133Z,11.92
2022-10-01T06:36:19.698Z,11.92
2022-10-01T06:38:49.478Z,11.94
2022-10-01T06:41:16.352Z,11.95
2022-10-01T06:43:42.935Z,11.97
2022-10-01T06:46:09.680Z,11.98
2022-10-01T06:48:36.781Z,12.00
2022-10-01T06:51:04.166Z,12.02
2022-10-01T06:53:30.889Z,12.05
2022-10-01T06:56:03.192Z,12.08
2022-10-01T06:58:30.135Z,12.09
2022-10-01T07:01:01.444Z,12.13
2022-10-01T07:03:28.472Z,12.15
2022-10-01T07:06:01.576Z,12.19
2022-10-01T07:08:28.288Z,12.21
2022-10-01T07:10:59.773Z,12.25
2022-10-01T07:13:26.306Z,12.30
2022-10-01T07:15:52.839Z,12.37
2022-10-01T07:18:19.408Z,12.41
2022-10-01T07:20:46.243Z,12.50
2022-10-01T07:23:14.364Z,12.56
2022-10-01T07:25:42.151Z,12.64
2022-10-01T07:28:16.690Z,12.71
2022-10-01T07:30:56.448Z,12.76
2022-10-01T07:33:23.143Z,12.83
2022-10-01T07:35:50.196Z,12.87
2022-10-01T07:38:17.979Z,12.92
2022-10-01T07:40:44.856Z,12.97
2022-10-01T07:43:11.397Z,13.02
2022-10-01T07:45:38.087Z,13.06
2022-10-01T07:48:05.418Z,13.07
2022-10-01T07:50:31.995Z,13.11
2022-10-01T07:52:59.744Z,13.15
2022-10-01T07:55:28.897Z,13.20
2022-10-01T07:58:01.525Z,13.25
2022-10-01T08:00:31.283Z,13.28
2022-10-01T08:02:58.196Z,13.33
2022-10-01T08:05:29.200Z,13.38
2022-10-01T08:08:03.565Z,13.44
2022-10-01T08:10:31.429Z,13.48
2022-10-01T08:13:14.820Z,13.50
2022-10-01T08:15:43.052Z,13.51
2022-10-01T08:18:11.485Z,13.51
2022-10-01T08:20:41.579Z,13.53
2022-10-01T08:23:12.095Z,13.53
2022-10-01T08:25:39.771Z,13.56
2022-10-01T08:28:07.357Z,13.60
2022-10-01T08:30:34.146Z,13.61
2022-10-01T08:33:04.872Z,13.63
2022-10-01T08:35:31.557Z,13.64
2022-10-01T08:38:05.913Z,13.66
2022-10-01T08:40:41.358Z,13.67
2022-10-01T08:43:28.200Z,13.67
2022-10-01T08:46:00.185Z,13.68
2022-10-01T08:48:40.744Z,13.70
2022-10-01T08:51:27.736Z,13.75
2022-10-01T08:54:32.555Z,13.83
2022-10-01T08:57:02.473Z,13.88
2022-10-01T08:59:44.249Z,13.92
2022-10-01T09:02:25.075Z,13.94
2022-10-01T09:05:01.306Z,13.98
2022-10-01T09:07:42.041Z,14.01
2022-10-01T09:10:35.927Z,14.05
2022-10-01T09:13:32.528Z,14.10
2022-10-01T09:16:24.091Z,14.18
2022-10-01T09:19:10.855Z,14.21
2022-10-01T09:21:54.368Z,14.28
2022-10-01T09:24:44.943Z,14.34
2022-10-01T09:27:16.563Z,14.40
2022-10-01T09:29:51.432Z,14.46
2022-10-01T09:32:26.149Z,14.54
2022-10-01T09:34:54.387Z,14.65
2022-10-01T09:37:40.732Z,14.75
2022-10-01T09:40:38.553Z,14.85
2022-10-01T09:43:08.746Z,14.95
2022-10-01T09:45:37.711Z,15.07
2022-10-01T09:48:21.576Z,15.19
2022-10-01T09:50:58.407Z,15.32
2022-10-01T09:53:48.044Z,15.41
2022-10-01T09:56:24.602Z,15.51
2022-10-01T09:58:56.868Z,15.59
2022-10-01T10:01:37.271Z,15.66
2022-10-01T10:04:04.468Z,15.77
2022-10-01T10:06:32.295Z,15.84
2022-10-01T10:09:01.167Z,15.78
2022-10-01T10:11:31.043Z,15.66
2022-10-01T10:14:00.787Z,15.49
2022-10-01T10:16:38.356Z,15.36
2022-10-01T10:19:11.748Z,15.29
2022-10-01T10:21:38.263Z,15.28
2022-10-01T10:24:19.454Z,15.28
2022-10-01T10:26:55.364Z,15.33
2022-10-01T10:29:33.648Z,15.35
2022-10-01T10:32:06.896Z,15.37
2022-10-01T10:34:40.928Z,15.40
2022-10-01T10:37:15.016Z,15.43
2022-10-01T10:39:46.861Z,15.48
2022-10-01T10:42:18.811Z,15.51
2022-10-01T10:44:49.632Z,15.62
2022-10-01T10:47:19.010Z,15.69
2022-10-01T10:49:56.581Z,15.78
2022-10-01T10:52:36.338Z,15.90
2022-10-01T10:55:40.798Z,16.01
2022-10-01T10:58:12.104Z,16.08
2022-10-01T11:00:52.779Z,16.13
2022-10-01T11:03:29.640Z,16.19
2022-10-01T11:06:08.770Z,16.22
2022-10-01T11:08:35.912Z,16.24
2022-10-01T11:11:31.771Z,16.27
2022-10-01T11:14:04.289Z,16.32
2022-10-01T11:17:20.817Z,16.39
2022-10-01T11:20:01.216Z,16.50
2022-10-01T11:23:17.065Z,16.55
2022-10-01T11:26:11.731Z,16.48
2022-10-01T11:28:48.593Z,16.43
2022-10-01T11:31:38.293Z,16.24
2022-10-01T11:34:37.445Z,16.09
2022-10-01T11:37:37.435Z,15.96
2022-10-01T11:40:15.953Z,15.89
2022-10-01T11:42:46.687Z,15.84
2022-10-01T11:45:23.281Z,15.80
2022-10-01T11:48:04.527Z,15.74
2022-10-01T11:50:51.982Z,15.71
2022-10-01T11:53:33.373Z,15.76
2022-10-01T11:56:22.647Z,15.88
2022-10-01T11:59:01.277Z,15.99
2022-10-01T12:01:34.943Z,16.11
2022-10-01T12:04:20.250Z,16.26
2022-10-01T12:07:03.976Z,16.36
2022-10-01T12:09:53.990Z,16.34
2022-10-01T12:12:50.831Z,16.28
2022-10-01T12:15:28.824Z,16.24
2022-10-01T12:18:29.472Z,16.17
2022-10-01T12:21:14.272Z,16.14
2022-10-01T12:23:53.400Z,16.12
2022-10-01T12:26:51.335Z,16.14
2022-10-01T12:29:31.385Z,16.21
2022-10-01T12:32:15.837Z,16.28
2022-10-01T12:35:32.066Z,16.42
2022-10-01T12:38:27.930Z,16.58
2022-10-01T12:41:07.020Z,16.76
2022-10-01T12:44:14.548Z,16.95
2022-10-01T12:47:00.050Z,16.90
2022-10-01T12:49:48.298Z,16.81
2022-10-01T12:52:42.512Z,16.71
2022-10-01T12:55:34.480Z,16.58
2022-10-01T12:58:17.329Z,16.48
2022-10-01T13:00:58.062Z,16.45
2022-10-01T13:03:50.148Z,16.48
2022-10-01T13:06:34.697Z,16.62
2022-10-01T13:09:32.910Z,16.73
2022-10-01T13:12:26.458Z,16.84
2022-10-01T13:14:54.163Z,16.92
2022-10-01T13:17:34.781Z,16.91
2022-10-01T13:20:13.781Z,16.90
2022-10-01T13:22:51.556Z,16.87
2022-10-01T13:25:57.743Z,16.93
2022-10-01T13:28:33.272Z,16.94
2022-10-01T13:31:10.155Z,17.04
2022-10-01T13:33:37.354Z,17.12
2022-10-01T13:36:10.905Z,17.25
2022-10-01T13:38:46.167Z,17.35
2022-10-01T13:41:27.655Z,17.38
2022-10-01T13:44:22.984Z,17.45
2022-10-01T13:46:53.362Z,17.45
2022-10-01T13:49:30.115Z,17.38
2022-10-01T13:51:57.899Z,17.29
2022-10-01T13:54:47.507Z,17.24
2022-10-01T13:57:29.766Z,17.24
2022-10-01T14:00:01.442Z,17.24
2022-10-01T14:02:32.236Z,17.22
2022-10-01T14:05:19.870Z,17.14
2022-10-01T14:07:50.317Z,17.10
2022-10-01T14:10:18.070Z,17.06
2022-10-01T14:13:05.236Z,17.03
2022-10-01T14:16:03.450Z,17.04
2022-10-01T14:18:36.367Z,17.00
2022-10-01T14:21:47.194Z,17.03
2022-10-01T14:24:57.788Z,17.01
2022-10-01T14:27:41.733Z,17.05
2022-10-01T14:30:21.116Z,17.02
2022-10-01T14:33:06.270Z,16.99
2022-10-01T14:35:38.532Z,16.96
2022-10-01T14:38:13.216Z,16.96
2022-10-01T14:40:42.084Z,16.95
2022-10-01T14:43:20.646Z,16.87
2022-10-01T14:45:52.505Z,16.74
2022-10-01T14:48:19.190Z,16.67
2022-10-01T14:50:52.594Z,16.48
2022-10-01T14:53:22.419Z,16.44
2022-10-01T14:55:50.957Z,16.35
2022-10-01T14:58:27.392Z,16.27
2022-10-01T15:00:56.459Z,16.18
2022-10-01T15:03:23.402Z,16.18
2022-10-01T15:05:50.787Z,16.17
2022-10-01T15:08:38.081Z,16.14
2022-10-01T15:11:11.047Z,15.92
2022-10-01T15:13:40.961Z,15.58
2022-10-01T15:16:21.412Z,15.28
2022-10-01T15:18:56.836Z,15.26
2022-10-01T15:21:30.893Z,15.26
2022-10-01T15:24:02.982Z,15.27
2022-10-01T15:26:31.492Z,15.28
2022-10-01T15:29:12.182Z,15.30
2022-10-01T15:31:39.398Z,15.25
2022-10-01T15:34:11.067Z,15.26
2022-10-01T15:36:39.309Z,15.27
2022-10-01T15:39:27.505Z,15.28
2022-10-01T15:41:55.511Z,15.28
2022-10-01T15:44:38.644Z,15.29
2022-10-01T15:47:35.568Z,15.29
2022-10-01T15:50:03.604Z,15.31
2022-10-01T15:52:54.224Z,15.29
2022-10-01T15:55:26.636Z,15.29
2022-10-01T15:58:07.546Z,15.28
2022-10-01T16:00:47.566Z,15.25
2022-10-01T16:03:23.261Z,15.25
2022-10-01T16:05:51.411Z,15.26
2022-10-01T16:08:21.883Z,15.26
2022-10-01T16:11:09.400Z,15.28
2022-10-01T16:13:39.265Z,15.29
2022-10-01T16:16:24.736Z,15.29
2022-10-01T16:19:00.133Z,15.27
2022-10-01T16:21:27.024Z,15.24
2022-10-01T16:23:55.918Z,15.19
2022-10-01T16:26:32.542Z,15.17
2022-10-01T16:29:22.590Z,15.17
2022-10-01T16:31:50.411Z,15.15
2022-10-01T16:34:19.557Z,15.13
2022-10-01T16:36:46.731Z,15.12
2022-10-01T16:39:15.076Z,15.10
2022-10-01T16:41:44.075Z,15.09
2022-10-01T16:44:13.647Z,15.07
2022-10-01T16:46:41.227Z,15.04
2022-10-01T16:49:15.633Z,15.03
2022-10-01T16:51:42.718Z,15.03
2022-10-01T16:54:21.536Z,15.02
2022-10-01T16:56:50.545Z,15.01
2022-10-01T16:59:17.117Z,15.01
2022-10-01T17:01:44.573Z,15.02
2022-10-01T17:04:13.507Z,15.01
2022-10-01T17:06:41.176Z,15.00
2022-10-01T17:09:07.739Z,15.00
2022-10-01T17:11:34.930Z,15.00
2022-10-01T17:14:03.014Z,14.99
2022-10-01T17:16:29.683Z,14.97
2022-10-01T17:18:56.802Z,14.95
2022-10-01T17:21:23.583Z,14.94
2022-10-01T17:23:53.520Z,14.92
2022-10-01T17:26:20.376Z,14.91
2022-10-01T17:28:47.050Z,14.89
2022-10-01T17:31:18.099Z,14.85
2022-10-01T17:33:45.233Z,14.81
2022-10-01T17:36:11.889Z,14.78
2022-10-01T17:38:40.412Z,14.71
2022-10-01T17:41:07.706Z,14.67
2022-10-01T17:43:34.285Z,14.63
2022-10-01T17:46:01.198Z,14.58
2022-10-01T17:48:28.886Z,14.55
2022-10-01T17:51:07.341Z,14.50
2022-10-01T17:53:41.900Z,14.46
2022-10-01T17:56:14.662Z,14.42
2022-10-01T17:58:45.388Z,14.39
2022-10-01T18:01:19.819Z,14.33
2022-10-01T18:03:46.894Z,14.32
2022-10-01T18:06:15.986Z,14.30
2022-10-01T18:08:55.037Z,14.26
2022-10-01T18:11:23.093Z,14.24
2022-10-01T18:13:51.040Z,14.20
2022-10-01T18:16:19.474Z,14.16
2022-10-01T18:21:33.160Z,14.11
2022-10-01T18:24:04.244Z,14.09
2022-10-01T18:26:32.220Z,14.07
2022-10-01T18:28:58.925Z,14.03
2022-10-01T18:31:35.358Z,14.01
2022-10-01T18:34:06.014Z,13.99
2022-10-01T18:36:38.407Z,13.96
2022-10-01T18:39:32.432Z,13.93
2022-10-01T18:41:59.193Z,13.89
2022-10-01T18:44:26.228Z,13.87
2022-10-01T18:47:22.960Z,13.83
2022-10-01T18:50:26.851Z,13.81
2022-10-01T18:53:40.013Z,13.72
2022-10-01T18:56:18.532Z,13.68
2022-10-01T18:59:14.097Z,13.65
2022-10-01T19:01:53.555Z,13.62
2022-10-01T19:05:01.511Z,13.56
2022-10-01T19:07:53.724Z,13.52
2022-10-01T19:10:39.296Z,13.52
2022-10-01T19:13:20.505Z,13.50
2022-10-01T19:16:39.338Z,13.48
2022-10-01T19:20:09.936Z,13.45
2022-10-01T19:23:21.754Z,13.41
2022-10-01T19:26:11.031Z,13.39
2022-10-01T19:29:18.953Z,13.39
2022-10-01T19:32:11.439Z,13.37
2022-10-01T19:34:48.033Z,13.35
2022-10-01T19:37:39.439Z,13.33
2022-10-01T19:40:42.203Z,13.33
2022-10-01T19:43:19.128Z,13.33
2022-10-01T19:45:56.363Z,13.33
2022-10-01T19:48:35.977Z,13.35
2022-10-01T19:51:08.041Z,13.36
2022-10-01T19:53:37.523Z,13.36
2022-10-01T19:56:05.328Z,13.36
2022-10-01T19:58:32.741Z,13.37
2022-10-01T20:01:02.032Z,13.38
2022-10-01T20:03:40.672Z,13.37
2022-10-01T20:06:25.623Z,13.34
2022-10-01T20:08:57.452Z,13.32
2022-10-01T20:11:36.805Z,13.31
2022-10-01T20:15:02.999Z,13.31
2022-10-01T20:17:38.697Z,13.28
2022-10-01T20:20:26.473Z,13.27
2022-10-01T20:23:12.293Z,13.24
2022-10-01T20:25:55.963Z,13.22
2022-10-01T20:28:42.066Z,13.19
2022-10-01T20:31:18.921Z,13.18
2022-10-01T20:34:00.124Z,13.16
2022-10-01T20:36:38.577Z,13.14
2022-10-01T20:39:15.994Z,13.12
2022-10-01T20:41:48.093Z,13.10
2022-10-01T20:44:21.862Z,13.09
2022-10-01T20:46:52.274Z,13.06
2022-10-01T20:49:29.948Z,13.06
2022-10-01T20:52:08.684Z,13.02
2022-10-01T20:54:46.548Z,13.01
2022-10-01T20:57:15.471Z,13.00
2022-10-01T20:59:49.021Z,12.99
2022-10-01T21:02:54.795Z,12.96
2022-10-01T21:05:37.327Z,12.94
2022-10-01T21:08:17.956Z,12.91
2022-10-01T21:10:53.888Z,12.90
2022-10-01T21:13:27.882Z,12.89
2022-10-01T21:16:37.303Z,12.86
2022-10-01T21:19:13.040Z,12.85
2022-10-01T21:21:56.101Z,12.81
2022-10-01T21:24:47.280Z,12.79
2022-10-01T21:27:34.512Z,12.79
2022-10-01T21:30:11.797Z,12.78
2022-10-01T21:33:13.429Z,12.75
2022-10-01T21:36:06.994Z,12.74
2022-10-01T21:38:41.063Z,12.73
2022-10-01T21:41:33.078Z,12.71
2022-10-01T21:44:34.748Z,12.68
2022-10-01T21:47:08.004Z,12.66
2022-10-01T21:50:17.694Z,12.63
2022-10-01T21:53:10.260Z,12.61
2022-10-01T21:56:06.566Z,12.61
2022-10-01T21:59:07.828Z,12.60
2022-10-01T22:01:57.234Z,12.59
2022-10-01T22:04:46.605Z,12.58
2022-10-01T22:07:23.986Z,12.54
2022-10-01T22:10:14.817Z,12.55
2022-10-01T22:12:45.890Z,12.53
2022-10-01T22:15:23.070Z,12.52
2022-10-01T22:17:53.713Z,12.52
2022-10-01T22:20:24.187Z,12.52
2022-10-01T22:22:56.668Z,12.50
2022-10-01T22:25:24.240Z,12.49
2022-10-01T22:27:56.639Z,12.48
2022-10-01T22:30:29.004Z,12.48
2022-10-01T22:33:07.987Z,12.48
2022-10-01T22:35:44.201Z,12.48
2022-10-01T22:38:30.832Z,12.49
2022-10-01T22:41:07.839Z,12.52
2022-10-01T22:43:34.999Z,12.54
2022-10-01T22:46:13.703Z,12.57
2022-10-01T22:49:25.351Z,12.59
2022-10-01T22:52:17.877Z,12.65
2022-10-01T22:55:05.872Z,12.68
2022-10-01T22:57:45.125Z,12.72
2022-10-01T23:00:14.532Z,12.74
2022-10-01T23:03:25.002Z,12.76
2022-10-01T23:06:36.249Z,12.81
2022-10-01T23:09:26.981Z,12.81
2022-10-01T23:12:09.541Z,12.83
2022-10-01T23:14:55.908Z,12.82
2022-10-01T23:17:29.353Z,12.82
2022-10-01T23:20:20.576Z,12.81
2022-10-01T23:23:02.660Z,12.80
2022-10-01T23:25:44.047Z,12.84
2022-10-01T23:28:45.392Z,12.84
2022-10-01T23:31:36.996Z,12.82
2022-10-01T23:34:39.800Z,12.82
2022-10-01T23:37:43.657Z,12.82
2022-10-01T23:40:20.617Z,12.81
2022-10-01T23:43:00.612Z,12.81
2022-10-01T23:45:34.344Z,12.77
2022-10-01T23:48:27.429Z,12.76
2022-10-01T23:51:03.906Z,12.75
2022-10-01T23:54:02.632Z,12.73
2022-10-01T23:56:48.658Z,12.73
2022-10-01T23:59:36.882Z,12.73
